Vichy-Charmeil Airport

Airport
ICAO code: 
LFLV
IATA Code: 
VHY
Summary
ICAO Region: 
EUR
Territory: 
Location: 
, Auvergne
Serving: 
Vichy
Elevation: 
817 ft
Coordinates: 
Aerial View: 
46° 10' 10.88" N, 3° 24' 13.45" E
Metar
Observation
LFLV 201730Z AUTO 34005KT 310V010 CAVOK 04/01 Q1031
Station
Vichy
Date/Time
2022-01-20 17:30:00
Wind direction
340°
Wind speed
05 kts
Lowest cloud amount
clouds and visibility OK
Temperature
4°C
Dew point
1°C
Humidity
80%
QNH
1031 hPa
Weather condition
n/a

Runways

Designator Length Width Surface Rops
1/19 2200 45 ASP No/No
Airport map: 
Aerial View: 

SKYbrary Partners:

Safety knowledge contributed by: